createdAt,value
2023-08-19T00:02:12.971Z,69.33
2023-08-19T00:04:41.084Z,70.06
2023-08-19T00:07:09.069Z,69.59
2023-08-19T00:09:39.305Z,69.71
2023-08-19T00:12:07.698Z,69.42
2023-08-19T00:14:35.679Z,69.68
2023-08-19T00:17:04.503Z,69.55
2023-08-19T00:19:33.715Z,69.27
2023-08-19T00:22:01.519Z,69.26
2023-08-19T00:24:29.314Z,69.62
2023-08-19T00:26:58.521Z,69.26
2023-08-19T00:29:26.301Z,69.48
2023-08-19T00:31:54.186Z,69.21
2023-08-19T00:34:22.287Z,69.62
2023-08-19T00:36:51.646Z,69.55
2023-08-19T00:39:19.490Z,69.46
2023-08-19T00:41:49.263Z,69.69
2023-08-19T00:44:17.441Z,69.57
2023-08-19T00:46:45.246Z,69.63
2023-08-19T00:49:13.346Z,69.64
2023-08-19T00:51:41.254Z,69.72
2023-08-19T00:54:10.659Z,69.39
2023-08-19T00:56:39.528Z,69.48
2023-08-19T00:59:07.481Z,69.21
2023-08-19T01:01:35.369Z,69.32
2023-08-19T01:04:03.361Z,69.52
2023-08-19T01:06:38.706Z,69.31
2023-08-19T01:09:18.266Z,69.29
2023-08-19T01:11:53.870Z,69.50
2023-08-19T01:14:35.665Z,68.87
2023-08-19T01:17:06.012Z,69.35
2023-08-19T01:19:34.745Z,69.20
2023-08-19T01:22:06.081Z,69.43
2023-08-19T01:24:37.580Z,69.18
2023-08-19T01:27:06.620Z,69.20
2023-08-19T01:29:34.857Z,68.94
2023-08-19T01:32:04.503Z,69.25
2023-08-19T01:34:32.590Z,69.36
2023-08-19T01:37:08.504Z,68.99
2023-08-19T01:39:39.215Z,69.35
2023-08-19T01:42:08.047Z,68.91
2023-08-19T01:44:37.192Z,69.08
2023-08-19T01:47:14.386Z,68.98
2023-08-19T01:49:42.206Z,68.72
2023-08-19T01:52:10.009Z,69.19
2023-08-19T01:54:39.186Z,68.93
2023-08-19T01:57:08.029Z,68.66
2023-08-19T01:59:36.256Z,69.08
2023-08-19T02:02:04.293Z,68.81
2023-08-19T02:04:32.148Z,68.68
2023-08-19T02:07:00.167Z,69.00
2023-08-19T02:09:30.342Z,68.95
2023-08-19T02:11:59.751Z,68.59
2023-08-19T02:14:27.633Z,68.61
2023-08-19T02:16:55.412Z,68.71
2023-08-19T02:19:23.424Z,68.51
2023-08-19T02:21:51.211Z,68.90
2023-08-19T02:24:19.310Z,68.41
2023-08-19T02:26:47.074Z,68.71
2023-08-19T02:29:16.338Z,69.07
2023-08-19T02:34:12.722Z,68.72
2023-08-19T02:36:40.787Z,68.92
2023-08-19T02:39:08.776Z,68.49
2023-08-19T02:41:36.543Z,68.78
2023-08-19T02:44:04.686Z,68.52
2023-08-19T02:46:33.939Z,68.43
2023-08-19T02:49:01.767Z,68.84
2023-08-19T02:51:29.557Z,68.73
2023-08-19T02:53:57.367Z,68.62
2023-08-19T02:56:26.125Z,68.94
2023-08-19T02:58:53.947Z,68.98
2023-08-19T03:01:21.968Z,68.52
2023-08-19T03:03:51.268Z,68.42
2023-08-19T03:06:19.169Z,68.55
2023-08-19T03:08:46.967Z,68.85
2023-08-19T03:11:14.834Z,68.78
2023-08-19T03:13:42.647Z,68.63
2023-08-19T03:16:10.924Z,68.95
2023-08-19T03:18:39.021Z,68.75
2023-08-19T03:21:08.183Z,68.97
2023-08-19T03:23:36.075Z,68.74
2023-08-19T03:26:04.177Z,69.00
2023-08-19T03:28:32.117Z,68.72
2023-08-19T03:31:00.006Z,68.52
2023-08-19T03:33:27.887Z,68.46
2023-08-19T03:36:00.831Z,68.91
2023-08-19T03:38:30.018Z,68.84
2023-08-19T03:40:57.977Z,68.53
2023-08-19T03:43:25.890Z,68.73
2023-08-19T03:45:53.678Z,68.74
2023-08-19T03:48:21.480Z,68.69
2023-08-19T03:50:49.279Z,68.94
2023-08-19T03:53:17.100Z,69.04
2023-08-19T03:55:49.790Z,68.92
2023-08-19T03:58:17.594Z,68.93
2023-08-19T04:00:46.062Z,68.80
2023-08-19T04:03:13.857Z,68.79
2023-08-19T04:05:41.672Z,69.03
2023-08-19T04:08:09.570Z,69.05
2023-08-19T04:10:37.398Z,68.52
2023-08-19T04:13:06.858Z,68.60
2023-08-19T04:15:34.882Z,68.69
2023-08-19T04:18:03.278Z,68.50
2023-08-19T04:20:31.113Z,68.92
2023-08-19T04:22:58.893Z,68.36
2023-08-19T04:25:26.893Z,68.48
2023-08-19T04:27:54.993Z,68.83
2023-08-19T04:30:24.218Z,68.72
2023-08-19T04:32:52.332Z,68.71
2023-08-19T04:35:20.267Z,68.41
2023-08-19T04:37:48.303Z,68.51
2023-08-19T04:40:16.251Z,68.47
2023-08-19T04:42:44.529Z,68.45
2023-08-19T04:45:12.311Z,68.59
2023-08-19T04:47:41.502Z,68.57
2023-08-19T04:50:10.464Z,68.41
2023-08-19T04:52:38.593Z,68.65
2023-08-19T04:55:07.555Z,68.89
2023-08-19T04:57:35.409Z,68.55
2023-08-19T05:00:03.725Z,68.95
2023-08-19T05:02:31.568Z,68.48
2023-08-19T05:05:00.942Z,68.89
2023-08-19T05:07:28.733Z,68.68
2023-08-19T05:09:56.881Z,68.51
2023-08-19T05:12:25.278Z,68.50
2023-08-19T05:14:54.229Z,68.47
2023-08-19T05:17:22.167Z,68.60
2023-08-19T05:19:50.241Z,69.02
2023-08-19T05:22:19.481Z,68.93
2023-08-19T05:24:47.281Z,68.53
2023-08-19T05:27:15.063Z,68.66
2023-08-19T05:29:42.893Z,68.94
2023-08-19T05:32:10.855Z,68.58
2023-08-19T05:34:38.655Z,68.47
2023-08-19T05:37:06.963Z,68.53
2023-08-19T05:39:36.221Z,68.53
2023-08-19T05:42:04.421Z,68.92
2023-08-19T05:44:32.536Z,68.42
2023-08-19T05:47:00.520Z,69.00
2023-08-19T05:49:28.804Z,68.55
2023-08-19T05:51:56.668Z,68.60
2023-08-19T05:54:24.821Z,68.71
2023-08-19T05:56:54.025Z,68.86
2023-08-19T05:59:21.870Z,68.83
2023-08-19T06:01:49.664Z,68.85
2023-08-19T06:04:17.846Z,68.82
2023-08-19T06:06:45.844Z,68.85
2023-08-19T06:09:13.634Z,68.99
2023-08-19T06:11:49.317Z,68.93
2023-08-19T06:14:18.591Z,68.86
2023-08-19T06:16:47.321Z,69.04
2023-08-19T06:19:17.656Z,68.80
2023-08-19T06:21:45.527Z,68.63
2023-08-19T06:24:13.516Z,68.66
2023-08-19T06:26:41.348Z,68.71
2023-08-19T06:29:09.168Z,68.95
2023-08-19T06:31:39.118Z,68.70
2023-08-19T06:34:07.782Z,68.63
2023-08-19T06:36:38.356Z,68.59
2023-08-19T06:39:09.440Z,68.72
2023-08-19T06:41:41.400Z,68.68
2023-08-19T06:44:09.967Z,69.29
2023-08-19T06:46:39.618Z,69.19
2023-08-19T06:49:08.290Z,68.86
2023-08-19T06:51:36.787Z,69.08
2023-08-19T06:54:05.234Z,69.17
2023-08-19T06:56:35.973Z,69.79
2023-08-19T06:59:11.899Z,69.95
2023-08-19T07:01:47.949Z,69.87
2023-08-19T07:04:16.021Z,69.63
2023-08-19T07:06:44.735Z,69.67
2023-08-19T07:09:14.226Z,69.85
2023-08-19T07:11:42.581Z,69.92
2023-08-19T07:14:11.869Z,69.99
2023-08-19T07:16:41.690Z,70.28
2023-08-19T07:19:13.464Z,69.81
2023-08-19T07:21:43.588Z,69.91
2023-08-19T07:24:13.178Z,70.05
2023-08-19T07:26:41.826Z,69.91
2023-08-19T07:29:10.571Z,70.43
2023-08-19T07:31:38.989Z,70.43
2023-08-19T07:34:08.271Z,70.61
2023-08-19T07:36:36.378Z,70.67
2023-08-19T07:39:05.171Z,70.15
2023-08-19T07:41:33.275Z,70.25
2023-08-19T07:44:01.069Z,70.28
2023-08-19T07:46:30.008Z,70.40
2023-08-19T07:48:57.928Z,70.63
2023-08-19T07:51:27.335Z,70.89
2023-08-19T07:53:55.131Z,70.52
2023-08-19T07:56:22.932Z,70.64
2023-08-19T07:58:51.146Z,70.78
2023-08-19T08:01:19.025Z,71.23
2023-08-19T08:03:47.437Z,71.10
2023-08-19T08:06:15.522Z,71.24
2023-08-19T08:08:44.777Z,70.90
2023-08-19T08:11:12.584Z,70.82
2023-08-19T08:13:40.430Z,71.15
2023-08-19T08:16:09.223Z,71.45
2023-08-19T08:18:37.161Z,71.23
2023-08-19T08:21:04.962Z,71.54
2023-08-19T08:23:32.789Z,71.18
2023-08-19T08:26:02.137Z,71.10
2023-08-19T08:28:29.979Z,71.36
2023-08-19T08:30:57.759Z,71.33
2023-08-19T08:33:27.116Z,71.63
2023-08-19T08:35:54.934Z,71.44
2023-08-19T08:38:22.816Z,71.73
2023-08-19T08:40:50.688Z,71.82
2023-08-19T08:43:19.881Z,71.90
2023-08-19T08:45:48.151Z,72.19
2023-08-19T08:48:18.317Z,71.97
2023-08-19T08:50:47.369Z,71.99
2023-08-19T08:53:15.698Z,71.82
2023-08-19T08:55:43.651Z,71.69
2023-08-19T08:58:11.557Z,72.02
2023-08-19T09:00:41.728Z,72.53
2023-08-19T09:03:11.830Z,72.18
2023-08-19T09:05:42.770Z,72.74
2023-08-19T09:08:15.941Z,72.54
2023-08-19T09:10:47.889Z,73.20
2023-08-19T09:13:22.216Z,72.68
2023-08-19T09:15:51.624Z,72.59
2023-08-19T09:18:20.363Z,73.40
2023-08-19T09:20:49.077Z,73.23
2023-08-19T09:23:17.215Z,73.57
2023-08-19T09:25:45.358Z,73.25
2023-08-19T09:28:18.206Z,73.65
2023-08-19T09:30:46.070Z,74.12
2023-08-19T09:33:21.725Z,74.82
2023-08-19T09:35:59.560Z,74.40
2023-08-19T09:38:28.331Z,74.63
2023-08-19T09:41:00.715Z,75.07
2023-08-19T09:43:28.960Z,74.51
2023-08-19T09:46:00.279Z,75.44
2023-08-19T09:48:29.707Z,75.69
2023-08-19T09:50:57.798Z,75.76
2023-08-19T09:53:30.395Z,75.40
2023-08-19T09:55:58.547Z,75.74
2023-08-19T09:58:27.342Z,75.62
2023-08-19T10:00:55.178Z,75.89
2023-08-19T10:03:23.777Z,75.74
2023-08-19T10:05:54.384Z,76.38
2023-08-19T10:08:24.864Z,75.91
2023-08-19T10:10:52.929Z,76.03
2023-08-19T10:13:24.087Z,75.75
2023-08-19T10:15:52.507Z,75.91
2023-08-19T10:18:25.269Z,75.63
2023-08-19T10:20:57.995Z,75.64
2023-08-19T10:23:27.838Z,75.55
2023-08-19T10:25:56.428Z,75.16
2023-08-19T10:28:26.105Z,75.35
2023-08-19T10:31:07.839Z,75.44
2023-08-19T10:33:40.595Z,75.04
2023-08-19T10:36:11.089Z,75.43
2023-08-19T10:41:20.384Z,75.25
2023-08-19T10:44:02.156Z,75.40
2023-08-19T10:46:33.652Z,75.27
2023-08-19T10:49:01.977Z,75.07
2023-08-19T10:51:48.988Z,75.32
2023-08-19T10:54:17.432Z,75.73
2023-08-19T10:56:46.701Z,75.10
2023-08-19T10:59:14.743Z,74.84
2023-08-19T11:01:43.279Z,74.71
2023-08-19T11:04:11.463Z,74.38
2023-08-19T11:06:40.821Z,74.18
2023-08-19T11:09:10.060Z,74.31
2023-08-19T11:11:38.905Z,74.23
2023-08-19T11:14:07.471Z,74.25
2023-08-19T11:16:35.707Z,74.10
2023-08-19T11:19:03.756Z,73.96
2023-08-19T11:21:32.617Z,74.13
2023-08-19T11:24:00.434Z,73.82
2023-08-19T11:26:29.704Z,74.19
2023-08-19T11:28:57.545Z,73.69
2023-08-19T11:31:25.672Z,74.09
2023-08-19T11:33:54.369Z,73.87
2023-08-19T11:36:26.452Z,74.08
2023-08-19T11:38:56.765Z,73.98
2023-08-19T11:41:28.727Z,74.06
2023-08-19T11:43:58.417Z,73.96
2023-08-19T11:46:29.662Z,74.03
2023-08-19T11:48:58.244Z,73.99
2023-08-19T11:51:27.480Z,74.17
2023-08-19T11:54:02.751Z,73.70
2023-08-19T11:56:30.885Z,73.69
2023-08-19T11:59:00.135Z,73.98
2023-08-19T12:01:28.041Z,73.99
2023-08-19T12:03:56.795Z,73.99
2023-08-19T12:06:24.885Z,73.84
2023-08-19T12:08:52.649Z,73.37
2023-08-19T12:11:26.923Z,73.61
2023-08-19T12:13:55.010Z,73.47
2023-08-19T12:16:24.316Z,73.28
2023-08-19T12:18:52.244Z,73.41
2023-08-19T12:21:20.060Z,73.50
2023-08-19T12:23:47.887Z,73.58
2023-08-19T12:26:15.718Z,73.42
2023-08-19T12:28:44.950Z,73.29
2023-08-19T12:31:12.989Z,73.29
2023-08-19T12:33:42.212Z,73.43
2023-08-19T12:36:19.255Z,73.16
2023-08-19T12:38:47.749Z,73.06
2023-08-19T12:41:16.004Z,73.19
2023-08-19T12:43:43.865Z,72.78
2023-08-19T12:46:12.262Z,73.09
2023-08-19T12:48:40.424Z,72.49
2023-08-19T12:51:09.655Z,73.13
2023-08-19T12:53:37.639Z,72.53
2023-08-19T12:56:05.804Z,72.68
2023-08-19T12:58:34.213Z,72.96
2023-08-19T13:01:02.103Z,72.62
2023-08-19T13:03:29.992Z,72.71
2023-08-19T13:05:58.223Z,72.85
2023-08-19T13:08:27.399Z,72.41
2023-08-19T13:10:55.229Z,72.57
2023-08-19T13:13:23.303Z,72.06
2023-08-19T13:15:51.177Z,72.31
2023-08-19T13:18:20.204Z,71.89
2023-08-19T13:20:48.097Z,71.83
2023-08-19T13:23:16.240Z,72.07
2023-08-19T13:25:45.428Z,71.88
2023-08-19T13:28:13.244Z,71.74
2023-08-19T13:30:41.092Z,72.05
2023-08-19T13:33:09.090Z,72.06
2023-08-19T13:35:37.083Z,71.81
2023-08-19T13:38:06.230Z,71.93
2023-08-19T13:40:34.366Z,71.94
2023-08-19T13:43:04.224Z,72.02
2023-08-19T13:45:32.120Z,72.22
2023-08-19T13:48:13.929Z,72.50
2023-08-19T13:50:43.699Z,72.29
2023-08-19T13:53:11.477Z,72.31
2023-08-19T13:55:40.230Z,72.26
2023-08-19T13:58:09.603Z,72.10
2023-08-19T14:00:37.731Z,72.38
2023-08-19T14:03:06.815Z,72.13
2023-08-19T14:05:35.981Z,72.38
2023-08-19T14:08:04.192Z,72.31
2023-08-19T14:10:32.132Z,72.50
2023-08-19T14:13:00.994Z,72.24
2023-08-19T14:15:30.216Z,71.84
2023-08-19T14:17:58.219Z,71.80
2023-08-19T14:20:26.277Z,71.33
2023-08-19T14:22:54.082Z,71.38
2023-08-19T14:25:21.930Z,71.49
2023-08-19T14:27:49.786Z,71.25
2023-08-19T14:30:17.624Z,71.03
2023-08-19T14:32:46.915Z,71.01
2023-08-19T14:35:14.857Z,70.73
2023-08-19T14:37:43.168Z,70.79
2023-08-19T14:40:11.851Z,70.24
2023-08-19T14:42:39.995Z,70.59
2023-08-19T14:45:09.023Z,70.11
2023-08-19T14:47:37.211Z,70.28
2023-08-19T14:50:08.225Z,70.22
2023-08-19T14:52:36.433Z,69.75
2023-08-19T14:55:05.221Z,70.00
2023-08-19T14:57:34.294Z,69.70
2023-08-19T15:00:02.620Z,69.39
2023-08-19T15:02:45.788Z,69.58
2023-08-19T15:05:15.316Z,69.79
2023-08-19T15:07:43.174Z,70.11
2023-08-19T15:10:12.418Z,69.58
2023-08-19T15:12:40.349Z,69.96
2023-08-19T15:15:11.260Z,69.70
2023-08-19T15:17:39.224Z,69.52
2023-08-19T15:20:08.872Z,69.91
2023-08-19T15:22:38.141Z,69.41
2023-08-19T15:25:07.040Z,69.50
2023-08-19T15:27:35.077Z,69.78
2023-08-19T15:30:03.120Z,68.70
2023-08-19T15:32:30.985Z,68.91
2023-08-19T15:34:58.896Z,69.37
2023-08-19T15:37:26.709Z,69.17
2023-08-19T15:39:55.862Z,69.61
2023-08-19T15:42:23.655Z,69.35
2023-08-19T15:44:51.533Z,68.49
2023-08-19T15:47:19.362Z,68.88
2023-08-19T15:49:47.238Z,69.00
2023-08-19T15:52:15.047Z,68.74
2023-08-19T15:54:43.371Z,68.61
2023-08-19T15:57:12.554Z,68.79
2023-08-19T15:59:40.391Z,68.70
2023-08-19T16:02:08.510Z,68.57
2023-08-19T16:04:36.771Z,68.42
2023-08-19T16:07:05.889Z,68.38
2023-08-19T16:09:33.929Z,67.99
2023-08-19T16:12:04.211Z,67.71
2023-08-19T16:14:33.421Z,67.52
2023-08-19T16:17:02.547Z,67.57
2023-08-19T16:19:30.380Z,68.19
2023-08-19T16:21:58.285Z,67.75
2023-08-19T16:24:26.113Z,67.81
2023-08-19T16:26:54.094Z,67.75
2023-08-19T16:29:21.943Z,67.46
2023-08-19T16:31:51.306Z,67.55
2023-08-19T16:34:19.142Z,67.55
2023-08-19T16:36:48.356Z,67.08
2023-08-19T16:39:16.176Z,67.36
2023-08-19T16:41:44.204Z,67.32
2023-08-19T16:44:12.203Z,66.97
2023-08-19T16:46:40.105Z,67.11
2023-08-19T16:49:09.272Z,67.20
2023-08-19T16:51:37.243Z,67.06
2023-08-19T16:54:05.674Z,67.05
2023-08-19T16:56:33.472Z,66.82
2023-08-19T16:59:01.287Z,66.75
2023-08-19T17:01:29.119Z,67.13
2023-08-19T17:03:56.927Z,66.80
2023-08-19T17:06:26.120Z,67.13
2023-08-19T17:08:53.976Z,66.93
2023-08-19T17:11:22.253Z,66.94
2023-08-19T17:13:50.049Z,67.23
2023-08-19T17:16:17.857Z,67.05
2023-08-19T17:18:46.083Z,66.91
2023-08-19T17:21:13.885Z,66.84
2023-08-19T17:23:43.549Z,66.97
2023-08-19T17:26:11.357Z,67.13
2023-08-19T17:28:39.339Z,66.73
2023-08-19T17:31:08.609Z,66.70
2023-08-19T17:33:36.632Z,66.58
2023-08-19T17:36:06.167Z,66.53
2023-08-19T17:38:34.247Z,66.90
2023-08-19T17:41:04.964Z,66.87
2023-08-19T17:43:33.178Z,66.77
2023-08-19T17:46:02.739Z,67.01
2023-08-19T17:48:31.466Z,67.00
2023-08-19T17:51:00.667Z,66.45
2023-08-19T17:53:29.777Z,66.31
2023-08-19T17:55:58.237Z,65.98
2023-08-19T17:58:30.922Z,66.07
2023-08-19T18:00:59.411Z,65.65
2023-08-19T18:03:27.780Z,66.25
2023-08-19T18:05:56.731Z,65.55
2023-08-19T18:08:24.617Z,65.99
2023-08-19T18:10:53.076Z,65.85
2023-08-19T18:13:20.932Z,66.19
2023-08-19T18:15:50.308Z,65.94
2023-08-19T18:18:18.321Z,65.88
2023-08-19T18:20:46.298Z,65.95
2023-08-19T18:23:14.102Z,65.99
2023-08-19T18:25:42.161Z,65.92
2023-08-19T18:28:09.986Z,65.88
2023-08-19T18:30:38.584Z,66.12
2023-08-19T18:33:07.916Z,66.18
2023-08-19T18:35:35.766Z,65.72
2023-08-19T18:38:03.690Z,65.98
2023-08-19T18:40:31.507Z,66.23
2023-08-19T18:42:59.322Z,66.25
2023-08-19T18:45:27.206Z,66.11
2023-08-19T18:48:09.613Z,65.90
2023-08-19T18:50:38.810Z,65.94
2023-08-19T18:53:07.455Z,65.97
2023-08-19T18:55:38.136Z,66.31
2023-08-19T18:58:06.347Z,66.40
2023-08-19T19:00:34.980Z,65.90
2023-08-19T19:03:03.896Z,66.04
2023-08-19T19:05:33.837Z,65.94
2023-08-19T19:08:02.030Z,66.43
2023-08-19T19:10:30.339Z,66.17
2023-08-19T19:12:58.593Z,66.40
2023-08-19T19:15:26.610Z,66.66
2023-08-19T19:17:56.916Z,66.35
2023-08-19T19:20:26.818Z,66.54
2023-08-19T19:22:56.958Z,66.61
2023-08-19T19:25:24.771Z,66.34
2023-08-19T19:27:52.972Z,66.60
2023-08-19T19:30:22.561Z,66.51
2023-08-19T19:32:51.326Z,66.19
2023-08-19T19:35:20.507Z,66.63
2023-08-19T19:37:48.706Z,66.36
2023-08-19T19:40:18.906Z,66.53
2023-08-19T19:42:47.087Z,66.53
2023-08-19T19:45:15.388Z,66.70
2023-08-19T19:50:13.039Z,66.32
2023-08-19T19:52:41.246Z,66.43
2023-08-19T19:55:09.897Z,66.27
2023-08-19T19:57:39.292Z,66.20
2023-08-19T20:00:11.024Z,66.63
2023-08-19T20:02:39.618Z,66.19
2023-08-19T20:05:07.932Z,66.56
2023-08-19T20:07:36.236Z,66.49
2023-08-19T20:10:24.119Z,66.42
2023-08-19T20:12:54.181Z,66.42
2023-08-19T20:15:22.044Z,66.64
2023-08-19T20:17:52.112Z,66.49
2023-08-19T20:20:20.336Z,66.27
2023-08-19T20:22:51.220Z,66.44
2023-08-19T20:25:19.071Z,66.68
2023-08-19T20:27:48.073Z,66.27
2023-08-19T20:30:17.352Z,66.48
2023-08-19T20:32:45.196Z,66.48
2023-08-19T20:35:13.158Z,66.26
2023-08-19T20:37:41.038Z,66.73
2023-08-19T20:40:10.167Z,66.61
2023-08-19T20:42:40.789Z,66.68
2023-08-19T20:45:10.509Z,66.67
2023-08-19T20:47:40.047Z,66.64
2023-08-19T20:50:08.241Z,66.22
2023-08-19T20:52:36.244Z,66.25
2023-08-19T20:55:04.404Z,66.67
2023-08-19T20:57:32.699Z,66.43
2023-08-19T21:00:00.934Z,66.33
2023-08-19T21:02:28.853Z,66.59
2023-08-19T21:04:58.108Z,66.38
2023-08-19T21:07:25.898Z,66.84
2023-08-19T21:09:53.791Z,66.60
2023-08-19T21:12:21.812Z,66.50
2023-08-19T21:14:49.662Z,66.41
2023-08-19T21:17:17.533Z,66.70
2023-08-19T21:19:46.277Z,66.49
2023-08-19T21:22:15.641Z,66.81
2023-08-19T21:24:43.536Z,66.69
2023-08-19T21:27:12.882Z,66.67
2023-08-19T21:29:40.715Z,66.71
2023-08-19T21:32:08.578Z,66.49
2023-08-19T21:34:36.550Z,66.77
2023-08-19T21:37:04.387Z,66.75
2023-08-19T21:39:33.990Z,66.48
2023-08-19T21:42:01.810Z,66.31
2023-08-19T21:44:30.618Z,66.25
2023-08-19T21:46:58.448Z,66.09
2023-08-19T21:49:26.420Z,65.93
2023-08-19T21:51:54.371Z,65.81
2023-08-19T21:54:22.474Z,66.22
2023-08-19T21:56:51.703Z,65.85
2023-08-19T21:59:19.753Z,66.15
2023-08-19T22:01:47.549Z,65.79
2023-08-19T22:04:15.322Z,65.94
2023-08-19T22:06:43.544Z,65.69
2023-08-19T22:09:11.374Z,65.95
2023-08-19T22:11:40.375Z,65.97
2023-08-19T22:14:09.650Z,65.88
2023-08-19T22:16:37.562Z,65.34
2023-08-19T22:19:05.825Z,65.58
2023-08-19T22:21:33.787Z,65.34
2023-08-19T22:24:01.796Z,65.15
2023-08-19T22:26:29.774Z,65.49
2023-08-19T22:28:57.958Z,65.45
2023-08-19T22:31:27.150Z,65.43
2023-08-19T22:33:55.395Z,65.18
2023-08-19T22:36:23.246Z,64.89
2023-08-19T22:38:52.621Z,64.95
2023-08-19T22:41:20.600Z,65.08
2023-08-19T22:43:48.414Z,65.05
2023-08-19T22:46:16.282Z,64.66
2023-08-19T22:48:45.833Z,65.07
2023-08-19T22:51:13.647Z,64.62
2023-08-19T22:53:41.477Z,64.57
2023-08-19T22:56:09.345Z,64.88
2023-08-19T22:58:37.185Z,64.38
2023-08-19T23:01:05.582Z,64.58
2023-08-19T23:03:33.725Z,64.59
2023-08-19T23:06:03.277Z,64.78
2023-08-19T23:08:31.203Z,64.50
2023-08-19T23:10:59.120Z,64.48
2023-08-19T23:13:26.936Z,64.13
2023-08-19T23:15:54.799Z,64.29
2023-08-19T23:18:22.791Z,63.71
2023-08-19T23:20:50.607Z,63.78
2023-08-19T23:23:19.794Z,63.66
2023-08-19T23:25:48.001Z,63.14
2023-08-19T23:28:15.883Z,63.48
2023-08-19T23:30:43.714Z,63.25
2023-08-19T23:33:11.570Z,63.28
2023-08-19T23:35:39.371Z,63.29
2023-08-19T23:38:07.178Z,63.35
2023-08-19T23:40:36.338Z,63.24
2023-08-19T23:43:04.235Z,63.27
2023-08-19T23:45:32.082Z,63.40
2023-08-19T23:48:00.565Z,63.67
2023-08-19T23:50:29.237Z,63.37
2023-08-19T23:52:59.414Z,63.40
2023-08-19T23:55:28.144Z,63.84
2023-08-19T23:57:58.059Z,63.69
